Time;durP1;ratioP1;P1;durP2;ratioP2;P2;SDS_P1;SDS_P2;PMS_P1;PMS_P2;Temp;Humidity;BMP_temperature;BMP_pressure;BME280_temperature;BME280_humidity;BME280_pressure;Samples;Min_cycle;Max_cycle;Signal;HPM_P1;HPM_P2
2022/09/28 00:01:58;;;;;;;;;;;;;;;12.82;100.00;96435.47;5077817;28;19925;-63
2022/09/28 00:04:24;;;;;;;;;;;;;;;12.58;100.00;96427.09;5080489;28;19924;-62
2022/09/28 00:06:50;;;;;;;;;;;;;;;12.73;100.00;96423.97;5081388;28;20440;-62
2022/09/28 00:09:17;;;;;;;;;;;;;;;12.86;100.00;96419.56;5079316;28;20015;-64
2022/09/28 00:11:44;;;;;;;;;;;;;;;12.93;100.00;96427.94;5079941;28;19996;-63
2022/09/28 00:14:11;;;;;;;;;;;;;;;13.04;100.00;96415.00;5082715;28;19984;-62
2022/09/28 00:16:38;;;;;;;;;;;;;;;13.05;100.00;96416.59;5085380;28;19967;-62
2022/09/28 00:19:07;;;;;;;;;;;;;;;13.02;100.00;96396.59;5084975;28;19975;-63
2022/09/28 00:21:35;;;;;;;;;;;;;;;12.93;100.00;96404.63;5081563;28;19947;-62
2022/09/28 00:24:18;;;;;;;;;;;;;;;12.96;100.00;96401.31;5082048;28;19931;-62
2022/09/28 00:26:46;;;;;;;;;;;;;;;13.07;100.00;96401.00;5075521;28;19924;-61
2022/09/28 00:29:15;;;;;;;;;;;;;;;12.69;100.00;96398.13;5082594;28;19932;-61
2022/09/28 00:31:41;;;;;;;;;;;;;;;12.28;100.00;96388.59;5085021;28;19925;-62
2022/09/28 00:34:09;;;;;;;;;;;;;;;12.43;100.00;96400.75;5084285;28;19931;-62
2022/09/28 00:36:35;;;;;;;;;;;;;;;12.35;100.00;96398.81;5081547;28;20264;-61
2022/09/28 00:39:05;;;;;;;;;;;;;;;11.92;100.00;96390.63;5081364;28;19971;-62
2022/09/28 00:41:31;;;;;;;;;;;;;;;11.72;100.00;96375.91;5073391;28;19925;-62
2022/09/28 00:44:17;;;;;;;;;;;;;;;11.28;100.00;96376.72;5081399;28;19976;-62
2022/09/28 00:46:43;;;;;;;;;;;;;;;11.38;100.00;96376.47;5074985;28;19992;-61
2022/09/28 00:49:16;;;;;;;;;;;;;;;11.27;100.00;96363.66;5081834;28;19988;-62
2022/09/28 00:51:44;;;;;;;;;;;;;;;11.83;100.00;96382.56;5084645;28;20027;-61
2022/09/28 00:54:11;;;;;;;;;;;;;;;12.05;100.00;96370.22;5084449;28;19963;-62
2022/09/28 00:56:40;;;;;;;;;;;;;;;12.03;100.00;96375.09;5084662;28;19932;-62
2022/09/28 00:59:08;;;;;;;;;;;;;;;11.97;100.00;96373.66;5084048;28;19964;-62
2022/09/28 01:01:34;;;;;;;;;;;;;;;12.05;100.00;96356.84;5080995;28;20058;-62
2022/09/28 01:04:01;;;;;;;;;;;;;;;11.84;100.00;96360.09;5080885;28;19992;-62
2022/09/28 01:06:32;;;;;;;;;;;;;;;12.08;100.00;96358.91;5084048;28;19931;-62
2022/09/28 01:08:59;;;;;;;;;;;;;;;12.23;100.00;96347.78;5084281;28;19925;-61
2022/09/28 01:11:26;;;;;;;;;;;;;;;12.00;100.00;96339.06;5081138;28;19939;-62
2022/09/28 01:13:54;;;;;;;;;;;;;;;12.19;100.00;96341.47;5080685;28;20089;-62
2022/09/28 01:16:27;;;;;;;;;;;;;;;11.93;100.00;96348.63;5082908;28;19925;-62
2022/09/28 01:18:59;;;;;;;;;;;;;;;11.87;100.00;96346.09;5084061;28;19931;-62
2022/09/28 01:21:25;;;;;;;;;;;;;;;11.84;100.00;96345.91;5080772;28;19992;-63
2022/09/28 01:24:13;;;;;;;;;;;;;;;11.48;100.00;96343.34;5080142;28;19932;-63
2022/09/28 01:26:59;;;;;;;;;;;;;;;11.31;100.00;96333.34;5073925;28;19980;-62
2022/09/28 01:29:31;;;;;;;;;;;;;;;11.57;100.00;96332.72;5083438;28;19964;-62
2022/09/28 01:32:01;;;;;;;;;;;;;;;11.54;100.00;96334.13;5083001;28;19935;-62
2022/09/28 01:34:31;;;;;;;;;;;;;;;11.68;100.00;96328.66;5081122;28;20042;-62
2022/09/28 01:37:00;;;;;;;;;;;;;;;11.66;100.00;96329.00;5080750;28;20008;-61
2022/09/28 01:39:31;;;;;;;;;;;;;;;11.50;100.00;96319.78;5083548;28;19955;-62
2022/09/28 01:42:00;;;;;;;;;;;;;;;11.59;100.00;96312.59;5083828;28;19925;-62
2022/09/28 01:44:29;;;;;;;;;;;;;;;11.35;100.00;96301.47;5080571;28;19964;-62
2022/09/28 01:47:02;;;;;;;;;;;;;;;11.17;100.00;96305.91;5080070;28;19972;-62
2022/09/28 01:49:33;;;;;;;;;;;;;;;11.10;100.00;96286.88;5082044;28;19924;-61
2022/09/28 01:52:00;;;;;;;;;;;;;;;10.76;100.00;96282.09;5083498;28;20377;-62
2022/09/28 01:54:30;;;;;;;;;;;;;;;10.47;100.00;96281.69;5083433;28;19924;-61
2022/09/28 01:57:00;;;;;;;;;;;;;;;10.62;100.00;96277.88;5083348;28;19994;-62
2022/09/28 01:59:29;;;;;;;;;;;;;;;10.43;100.00;96270.03;5080130;28;19925;-61
2022/09/28 02:01:58;;;;;;;;;;;;;;;10.33;100.00;96275.63;5079757;28;19996;-62
2022/09/28 02:04:28;;;;;;;;;;;;;;;10.28;100.00;96263.16;5082501;28;19984;-62
2022/09/28 02:06:57;;;;;;;;;;;;;;;10.30;100.00;96266.31;5083470;28;20023;-61
2022/09/28 02:09:28;;;;;;;;;;;;;;;10.61;100.00;96261.09;5080497;28;19983;-61
2022/09/28 02:11:58;;;;;;;;;;;;;;;10.69;100.00;96260.34;5079798;28;19960;-61
2022/09/28 02:14:25;;;;;;;;;;;;;;;10.82;100.00;96261.38;5082501;28;20030;-62
2022/09/28 02:16:54;;;;;;;;;;;;;;;10.76;100.00;96246.59;5082870;28;20004;-62
2022/09/28 02:19:22;;;;;;;;;;;;;;;10.98;100.00;96243.09;5080770;28;20027;-62
2022/09/28 02:21:53;;;;;;;;;;;;;;;11.19;100.00;96241.50;5079453;28;19971;-61
2022/09/28 02:24:23;;;;;;;;;;;;;;;11.19;100.00;96238.81;5081807;28;19992;-62
2022/09/28 02:26:50;;;;;;;;;;;;;;;10.97;100.00;96234.31;5082882;28;19992;-62
2022/09/28 02:29:17;;;;;;;;;;;;;;;10.61;100.00;96217.59;5080970;28;19991;-61
2022/09/28 02:31:43;;;;;;;;;;;;;;;10.33;100.00;96216.13;5079257;28;19925;-63
2022/09/28 02:34:11;;;;;;;;;;;;;;;10.33;100.00;96222.25;5079581;28;19954;-62
2022/09/28 02:36:37;;;;;;;;;;;;;;;10.04;100.00;96214.59;5082684;28;19960;-62
2022/09/28 02:39:03;;;;;;;;;;;;;;;9.99;100.00;96205.91;5082552;28;19987;-62
2022/09/28 02:41:38;;;;;;;;;;;;;;;9.81;100.00;96209.50;5069662;28;19928;-61
2022/09/28 02:44:13;;;;;;;;;;;;;;;9.87;100.00;96200.31;5079224;28;19980;-61
2022/09/28 02:46:45;;;;;;;;;;;;;;;9.75;100.00;96198.94;5072267;28;19980;-62
2022/09/28 02:49:18;;;;;;;;;;;;;;;10.03;100.00;96206.88;5079752;28;19935;-62
2022/09/28 02:51:48;;;;;;;;;;;;;;;9.83;100.00;96202.00;5082479;28;19984;-61
2022/09/28 02:54:27;;;;;;;;;;;;;;;9.44;100.00;96190.00;5082086;28;19931;-62
2022/09/28 02:57:00;;;;;;;;;;;;;;;9.35;100.00;96190.97;5082174;28;19983;-62
2022/09/28 02:59:34;;;;;;;;;;;;;;;9.50;100.00;96183.47;5078046;28;19940;-63
2022/09/28 03:02:02;;;;;;;;;;;;;;;9.25;100.00;96177.88;5078776;28;19925;-63
2022/09/28 03:04:36;;;;;;;;;;;;;;;9.33;100.00;96177.97;5082065;28;19924;-61
2022/09/28 03:07:06;;;;;;;;;;;;;;;9.02;100.00;96172.44;5082152;28;20605;-61
2022/09/28 03:09:35;;;;;;;;;;;;;;;8.91;100.00;96175.59;5070618;28;20019;-61
2022/09/28 03:12:06;;;;;;;;;;;;;;;8.75;100.00;96175.06;5078641;28;19967;-66
2022/09/28 03:14:32;;;;;;;;;;;;;;;8.83;100.00;96173.59;5070514;28;19996;-61
2022/09/28 03:16:59;;;;;;;;;;;;;;;9.19;100.00;96163.88;5078391;28;19998;-61
2022/09/28 03:19:27;;;;;;;;;;;;;;;9.23;100.00;96147.00;5079838;28;19928;-61
2022/09/28 03:21:55;;;;;;;;;;;;;;;9.01;100.00;96141.56;5081828;28;19924;-61
2022/09/28 03:24:21;;;;;;;;;;;;;;;8.92;100.00;96134.56;5081693;28;20005;-62
2022/09/28 03:26:47;;;;;;;;;;;;;;;8.92;100.00;96134.56;5081803;28;19936;-62
2022/09/28 03:29:14;;;;;;;;;;;;;;;8.97;100.00;96131.81;5080245;28;19924;-61
2022/09/28 03:31:40;;;;;;;;;;;;;;;9.16;100.00;96127.94;5077183;28;19935;-61
2022/09/28 03:34:06;;;;;;;;;;;;;;;9.03;100.00;96125.31;5078365;28;19950;-61
2022/09/28 03:36:32;;;;;;;;;;;;;;;9.06;100.00;96119.41;5081926;28;20015;-62
2022/09/28 03:39:00;;;;;;;;;;;;;;;9.10;100.00;96117.69;5081805;28;19987;-61
2022/09/28 03:41:27;;;;;;;;;;;;;;;9.06;100.00;96112.19;5078559;28;19939;-62
2022/09/28 03:43:53;;;;;;;;;;;;;;;9.05;100.00;96117.81;5078153;28;19935;-61
2022/09/28 03:46:20;;;;;;;;;;;;;;;8.96;100.00;96106.28;5079556;28;20561;-62
2022/09/28 03:48:46;;;;;;;;;;;;;;;9.00;100.00;96093.97;5081382;28;19928;-62
2022/09/28 03:51:13;;;;;;;;;;;;;;;8.90;100.00;96089.63;5080150;28;20008;-62
2022/09/28 03:53:40;;;;;;;;;;;;;;;8.85;100.00;96070.31;5078137;28;19924;-62
2022/09/28 03:56:10;;;;;;;;;;;;;;;8.85;100.00;96076.38;5078028;28;19929;-61
2022/09/28 03:58:37;;;;;;;;;;;;;;;8.94;100.00;96073.84;5081298;28;19959;-62
2022/09/28 04:01:04;;;;;;;;;;;;;;;8.87;100.00;96066.25;5081123;28;19979;-61
2022/09/28 04:03:30;;;;;;;;;;;;;;;8.81;100.00;96054.13;5069725;28;19932;-60
2022/09/28 04:05:57;;;;;;;;;;;;;;;8.99;100.00;96063.09;5077903;28;19936;-62
2022/09/28 04:08:23;;;;;;;;;;;;;;;9.15;100.00;96059.81;5080209;28;19960;-61
2022/09/28 04:10:49;;;;;;;;;;;;;;;9.33;100.00;96054.66;5081116;28;19931;-61
2022/09/28 04:13:17;;;;;;;;;;;;;;;9.63;100.00;96049.44;5079524;28;19959;-62
2022/09/28 04:15:51;;;;;;;;;;;;;;;9.53;100.00;96039.00;5077775;28;19988;-61
2022/09/28 04:18:18;;;;;;;;;;;;;;;9.45;100.00;96042.38;5079407;28;20393;-62
2022/09/28 04:20:46;;;;;;;;;;;;;;;9.15;100.00;96035.84;5080918;28;19970;-63
2022/09/28 04:23:13;;;;;;;;;;;;;;;9.00;100.00;96027.41;5080366;28;19925;-62
2022/09/28 04:25:39;;;;;;;;;;;;;;;8.96;100.00;96037.06;5077495;28;19971;-62
2022/09/28 04:30:50;;;;;;;;;;;;;;;8.81;100.00;96024.06;5080847;28;19925;-62
2022/09/28 04:33:17;;;;;;;;;;;;;;;8.85;100.00;96012.50;5079360;28;19930;-62
2022/09/28 04:35:43;;;;;;;;;;;;;;;9.14;100.00;96009.50;5077615;28;19925;-62
2022/09/28 04:38:10;;;;;;;;;;;;;;;9.00;100.00;96014.09;5078053;28;20350;-61
2022/09/28 04:40:36;;;;;;;;;;;;;;;9.09;100.00;96012.28;5081063;28;19925;-61
2022/09/28 04:43:02;;;;;;;;;;;;;;;8.96;100.00;96013.91;5080996;28;19952;-61
2022/09/28 04:45:28;;;;;;;;;;;;;;;9.02;100.00;96001.25;5077779;28;19932;-62
2022/09/28 04:47:56;;;;;;;;;;;;;;;9.10;100.00;96006.66;5077281;28;19925;-62
2022/09/28 04:50:22;;;;;;;;;;;;;;;9.00;100.00;95998.13;5079674;28;19925;-62
2022/09/28 04:52:49;;;;;;;;;;;;;;;8.95;100.00;96000.88;5081187;28;19924;-62
2022/09/28 04:55:15;;;;;;;;;;;;;;;8.93;100.00;96003.84;5078203;28;19924;-61
2022/09/28 04:57:42;;;;;;;;;;;;;;;8.87;100.00;95994.38;5077732;28;19929;-62
2022/09/28 05:00:09;;;;;;;;;;;;;;;8.82;100.00;95993.72;5081283;28;19961;-62
2022/09/28 05:02:36;;;;;;;;;;;;;;;8.87;100.00;96004.25;5084125;28;19921;-62
2022/09/28 05:05:03;;;;;;;;;;;;;;;8.88;100.00;95997.84;5084371;28;19931;-62
2022/09/28 05:07:30;;;;;;;;;;;;;;;8.97;100.00;95996.06;5080703;28;19996;-61
2022/09/28 05:09:57;;;;;;;;;;;;;;;8.99;100.00;95996.53;5080705;28;19953;-61
2022/09/28 05:12:23;;;;;;;;;;;;;;;8.86;100.00;95984.03;5083047;28;19960;-62
2022/09/28 05:14:49;;;;;;;;;;;;;;;8.87;100.00;95983.75;5084252;28;19924;-62
2022/09/28 05:17:16;;;;;;;;;;;;;;;9.13;100.00;95986.63;5082483;28;19931;-62
2022/09/28 05:19:42;;;;;;;;;;;;;;;9.08;100.00;95976.09;5080392;28;19956;-61
2022/09/28 05:22:13;;;;;;;;;;;;;;;9.29;100.00;95987.06;5081204;28;19924;-62
2022/09/28 05:24:39;;;;;;;;;;;;;;;9.34;100.00;95990.44;5083902;28;19978;-64
2022/09/28 05:27:06;;;;;;;;;;;;;;;9.17;100.00;95968.97;5083693;28;19940;-61
2022/09/28 05:29:32;;;;;;;;;;;;;;;9.30;100.00;95972.69;5080036;28;19924;-61
2022/09/28 05:32:00;;;;;;;;;;;;;;;9.26;100.00;95969.81;5080212;28;19933;-62
2022/09/28 05:34:26;;;;;;;;;;;;;;;9.29;100.00;95963.91;5082975;28;19948;-62
2022/09/28 05:36:52;;;;;;;;;;;;;;;9.51;100.00;95960.47;5083552;28;20024;-62
2022/09/28 05:39:20;;;;;;;;;;;;;;;9.40;100.00;95959.13;5081551;28;20012;-62
2022/09/28 05:41:47;;;;;;;;;;;;;;;9.36;100.00;95953.63;5079963;28;19921;-62
2022/09/28 05:44:13;;;;;;;;;;;;;;;9.28;100.00;95951.69;5080638;28;19924;-62
2022/09/28 05:46:39;;;;;;;;;;;;;;;9.43;100.00;95954.00;5083049;28;19954;-62
2022/09/28 05:49:05;;;;;;;;;;;;;;;9.42;100.00;95957.75;5083125;28;19925;-62
2022/09/28 05:51:32;;;;;;;;;;;;;;;9.46;100.00;95952.59;5079733;28;19963;-63
2022/09/28 05:53:58;;;;;;;;;;;;;;;9.55;100.00;95953.44;5080072;28;20007;-62
2022/09/28 05:56:26;;;;;;;;;;;;;;;9.59;100.00;95960.50;5082337;28;19925;-61
2022/09/28 05:58:52;;;;;;;;;;;;;;;9.56;100.00;95949.69;5083041;28;20067;-62
2022/09/28 06:01:18;;;;;;;;;;;;;;;9.53;100.00;95948.41;5081141;28;19991;-62
2022/09/28 06:03:45;;;;;;;;;;;;;;;9.47;100.00;95944.28;5079514;28;19924;-62
2022/09/28 06:06:11;;;;;;;;;;;;;;;9.45;100.00;95943.81;5080164;28;20313;-61
2022/09/28 06:08:41;;;;;;;;;;;;;;;9.46;100.00;95941.94;5082446;28;19966;-61
2022/09/28 06:11:08;;;;;;;;;;;;;;;9.50;100.00;95937.59;5081981;28;20124;-61
2022/09/28 06:13:35;;;;;;;;;;;;;;;9.54;100.00;95946.53;5079092;28;19996;-62
2022/09/28 06:16:03;;;;;;;;;;;;;;;9.45;100.00;95935.03;5078976;28;19963;-61
2022/09/28 06:18:29;;;;;;;;;;;;;;;9.61;100.00;95945.03;5082468;28;20408;-61
2022/09/28 06:20:56;;;;;;;;;;;;;;;9.65;100.00;95943.34;5082378;28;20007;-62
2022/09/28 06:23:22;;;;;;;;;;;;;;;9.61;100.00;95945.03;5080451;28;19924;-61
2022/09/28 06:25:49;;;;;;;;;;;;;;;9.77;100.00;95935.56;5078570;28;19981;-62
2022/09/28 06:28:15;;;;;;;;;;;;;;;9.73;100.00;95937.25;5080215;28;19925;-61
2022/09/28 06:30:43;;;;;;;;;;;;;;;9.78;100.00;95939.78;5082705;28;19934;-62
2022/09/28 06:33:11;;;;;;;;;;;;;;;9.86;100.00;95937.47;5081901;28;19924;-62
2022/09/28 06:35:38;;;;;;;;;;;;;;;9.80;100.00;95936.03;5079121;28;20321;-61
2022/09/28 06:38:04;;;;;;;;;;;;;;;9.91;100.00;95943.47;5079044;28;19935;-61
2022/09/28 06:40:31;;;;;;;;;;;;;;;10.04;100.00;95945.25;5070763;28;20010;-62
2022/09/28 06:42:58;;;;;;;;;;;;;;;10.14;100.00;95939.69;5078930;28;19975;-62
2022/09/28 06:45:25;;;;;;;;;;;;;;;10.37;100.00;95936.97;5081517;28;19924;-61
2022/09/28 06:47:57;;;;;;;;;;;;;;;10.53;100.00;95932.75;5082518;28;19924;-61
2022/09/28 06:50:23;;;;;;;;;;;;;;;10.84;100.00;95926.22;5079661;28;19929;-62
2022/09/28 06:52:51;;;;;;;;;;;;;;;11.05;100.00;95923.72;5084635;28;20042;-62
2022/09/28 06:55:17;;;;;;;;;;;;;;;11.26;100.00;95931.91;5080009;28;19982;-62
2022/09/28 06:57:44;;;;;;;;;;;;;;;11.45;100.00;95940.38;5078302;28;19925;-61
2022/09/28 07:00:11;;;;;;;;;;;;;;;11.53;100.00;95939.59;5078578;28;19925;-63
2022/09/28 07:02:37;;;;;;;;;;;;;;;11.60;100.00;95939.13;5081810;28;20118;-62
2022/09/28 07:05:07;;;;;;;;;;;;;;;11.59;100.00;95943.66;5081504;28;19981;-61
2022/09/28 07:07:33;;;;;;;;;;;;;;;11.66;100.00;95946.66;5070323;28;19924;-63
2022/09/28 07:09:59;;;;;;;;;;;;;;;11.61;100.00;95930.75;5077987;28;19988;-62
2022/09/28 07:12:26;;;;;;;;;;;;;;;11.69;100.00;95940.66;5080808;28;19939;-62
2022/09/28 07:14:55;;;;;;;;;;;;;;;11.74;100.00;95940.53;5081527;28;19979;-62
2022/09/28 07:17:21;;;;;;;;;;;;;;;11.73;100.00;95944.28;5078991;28;19932;-61
2022/09/28 07:19:51;;;;;;;;;;;;;;;11.82;100.00;95945.06;5077439;28;19988;-62
2022/09/28 07:22:19;;;;;;;;;;;;;;;11.74;100.00;95939.75;5079413;28;19960;-62
2022/09/28 07:24:46;;;;;;;;;;;;;;;11.75;100.00;95944.78;5081456;28;19959;-62
2022/09/28 07:27:12;;;;;;;;;;;;;;;11.76;100.00;95938.31;5080248;28;19925;-62
2022/09/28 07:29:38;;;;;;;;;;;;;;;11.75;100.00;95950.13;5078052;28;19924;-62
2022/09/28 07:32:05;;;;;;;;;;;;;;;11.77;100.00;95949.78;5077702;28;19920;-62
2022/09/28 07:34:34;;;;;;;;;;;;;;;11.72;100.00;95955.31;5069745;28;19931;-62
2022/09/28 07:37:01;;;;;;;;;;;;;;;11.74;100.00;95958.44;5077919;28;19948;-62
2022/09/28 07:39:28;;;;;;;;;;;;;;;11.82;100.00;95960.34;5080725;28;19943;-62
2022/09/28 07:41:54;;;;;;;;;;;;;;;11.74;100.00;95966.47;5081289;28;19925;-61
2022/09/28 07:44:20;;;;;;;;;;;;;;;11.76;100.00;95970.41;5079135;28;19935;-62
2022/09/28 07:46:46;;;;;;;;;;;;;;;11.88;100.00;95973.19;5077797;28;19976;-63
2022/09/28 07:49:15;;;;;;;;;;;;;;;11.87;100.00;95968.97;5078459;28;19931;-62
2022/09/28 07:51:43;;;;;;;;;;;;;;;11.83;100.00;95970.72;5081260;28;19928;-61
2022/09/28 07:54:09;;;;;;;;;;;;;;;11.90;100.00;95981.72;5081070;28;19924;-62
2022/09/28 07:56:37;;;;;;;;;;;;;;;11.86;100.00;95983.44;5081262;28;19952;-62
2022/09/28 07:59:03;;;;;;;;;;;;;;;11.91;100.00;95985.94;5081211;28;20327;-61
2022/09/28 08:01:30;;;;;;;;;;;;;;;11.93;100.00;95985.63;5077466;28;20015;-62
2022/09/28 08:03:56;;;;;;;;;;;;;;;11.95;100.00;95994.13;5077527;28;19924;-62
2022/09/28 08:06:22;;;;;;;;;;;;;;;11.87;100.00;95994.94;5079720;28;20000;-62
2022/09/28 08:08:49;;;;;;;;;;;;;;;12.00;100.00;96006.56;5080900;28;19940;-62
2022/09/28 08:11:16;;;;;;;;;;;;;;;11.93;100.00;95998.22;5079339;28;19925;-62
2022/09/28 08:13:45;;;;;;;;;;;;;;;11.97;100.00;96007.19;5077500;28;19951;-62
2022/09/28 08:16:11;;;;;;;;;;;;;;;12.06;100.00;95999.94;5078117;28;19925;-61
2022/09/28 08:18:38;;;;;;;;;;;;;;;12.08;100.00;96003.06;5080884;28;20074;-62
2022/09/28 08:23:50;;;;;;;;;;;;;;;12.14;100.00;96004.47;5072703;28;20019;-62
2022/09/28 08:26:16;;;;;;;;;;;;;;;12.15;100.00;96011.41;5078443;28;19925;-62
2022/09/28 08:28:45;;;;;;;;;;;;;;;12.22;100.00;96015.16;5080634;28;19924;-61
2022/09/28 08:31:11;;;;;;;;;;;;;;;12.29;100.00;96020.00;5079546;28;19986;-62
2022/09/28 08:33:38;;;;;;;;;;;;;;;12.25;100.00;96027.13;5080778;28;19921;-62
2022/09/28 08:36:05;;;;;;;;;;;;;;;12.35;100.00;96034.78;5081042;28;19925;-63
2022/09/28 08:38:32;;;;;;;;;;;;;;;12.04;100.00;96034.25;5073223;28;20012;-62
2022/09/28 08:41:15;;;;;;;;;;;;;;;12.02;100.00;96042.59;5081287;28;20666;-62
2022/09/28 08:43:51;;;;;;;;;;;;;;;12.20;100.00;96037.97;5074380;28;19988;-62
2022/09/28 08:46:19;;;;;;;;;;;;;;;12.27;100.00;96038.28;5082436;28;19924;-62
2022/09/28 08:48:52;;;;;;;;;;;;;;;12.28;100.00;96037.97;5084469;28;19925;-62
2022/09/28 08:51:20;;;;;;;;;;;;;;;12.34;100.00;96038.59;5081277;28;19932;-62
2022/09/28 08:53:50;;;;;;;;;;;;;;;12.14;100.00;96037.38;5081208;28;19931;-62
2022/09/28 08:56:21;;;;;;;;;;;;;;;12.22;100.00;96041.94;5081967;28;20515;-61
2022/09/28 08:58:52;;;;;;;;;;;;;;;12.29;100.00;96052.13;5084187;28;20035;-61
2022/09/28 09:01:19;;;;;;;;;;;;;;;12.31;100.00;96060.63;5082140;28;19948;-62
2022/09/28 09:03:48;;;;;;;;;;;;;;;12.25;100.00;96061.91;5080683;28;19929;-62
2022/09/28 09:06:20;;;;;;;;;;;;;;;12.20;100.00;96065.53;5081519;28;19975;-62
2022/09/28 09:08:54;;;;;;;;;;;;;;;12.09;100.00;96066.97;5084189;28;19924;-62
2022/09/28 09:11:26;;;;;;;;;;;;;;;12.15;100.00;96062.25;5081973;28;20483;-61
2022/09/28 09:14:05;;;;;;;;;;;;;;;12.20;100.00;96064.75;5080659;28;19925;-63
2022/09/28 09:16:34;;;;;;;;;;;;;;;12.19;100.00;96066.63;5072395;28;19935;-63
2022/09/28 09:19:07;;;;;;;;;;;;;;;12.20;100.00;96073.56;5080422;28;19978;-61
2022/09/28 09:21:39;;;;;;;;;;;;;;;12.35;100.00;96082.97;5072232;28;19931;-62
2022/09/28 09:24:13;;;;;;;;;;;;;;;12.26;100.00;96077.63;5081015;28;19925;-62
2022/09/28 09:26:40;;;;;;;;;;;;;;;12.35;100.00;96082.97;5073349;28;19921;-62
2022/09/28 09:29:18;;;;;;;;;;;;;;;12.37;100.00;96088.81;5080301;28;19960;-62
2022/09/28 09:31:53;;;;;;;;;;;;;;;12.48;100.00;96099.94;5083454;28;19988;-61
2022/09/28 09:34:40;;;;;;;;;;;;;;;12.43;100.00;96096.34;5080595;28;20019;-62
2022/09/28 09:37:15;;;;;;;;;;;;;;;12.31;100.00;96098.09;5080039;28;20011;-62
2022/09/28 09:39:47;;;;;;;;;;;;;;;12.37;100.00;96096.84;5082621;28;19950;-62
2022/09/28 09:42:25;;;;;;;;;;;;;;;12.33;100.00;96091.31;5082489;28;19968;-62
2022/09/28 09:45:04;;;;;;;;;;;;;;;12.44;100.00;96089.09;5078012;28;19925;-62
2022/09/28 09:47:31;;;;;;;;;;;;;;;12.44;100.00;96092.56;5083395;28;19924;-62
2022/09/28 09:50:02;;;;;;;;;;;;;;;12.35;100.00;96099.03;5083414;28;19948;-62
2022/09/28 09:52:34;;;;;;;;;;;;;;;12.41;100.00;96087.03;5083320;28;19999;-62
2022/09/28 09:55:03;;;;;;;;;;;;;;;12.50;100.00;96081.69;5083592;28;19951;-62
2022/09/28 09:57:32;;;;;;;;;;;;;;;12.51;100.00;96088.59;5079875;28;19925;-62
2022/09/28 10:00:01;;;;;;;;;;;;;;;12.60;100.00;96089.38;5079801;28;19953;-61
2022/09/28 10:02:29;;;;;;;;;;;;;;;12.60;100.00;96084.78;5082359;28;19947;-61
2022/09/28 10:04:57;;;;;;;;;;;;;;;12.61;100.00;96090.94;5082830;28;19925;-61
2022/09/28 10:07:25;;;;;;;;;;;;;;;12.57;100.00;96082.75;5080410;28;20035;-61
2022/09/28 10:09:55;;;;;;;;;;;;;;;12.65;100.00;96087.31;5079421;28;19924;-61
2022/09/28 10:12:23;;;;;;;;;;;;;;;12.41;100.00;96082.47;5081314;28;19968;-62
2022/09/28 10:14:49;;;;;;;;;;;;;;;12.73;100.00;96094.53;5082854;28;19939;-62
2022/09/28 10:17:18;;;;;;;;;;;;;;;12.83;100.00;96099.53;5081056;28;19924;-62
2022/09/28 10:19:44;;;;;;;;;;;;;;;12.84;100.00;96106.47;5078952;28;19932;-62
2022/09/28 10:22:14;;;;;;;;;;;;;;;12.81;100.00;96096.38;5080415;28;19931;-62
2022/09/28 10:24:44;;;;;;;;;;;;;;;12.79;100.00;96103.16;5082627;28;19936;-62
2022/09/28 10:27:13;;;;;;;;;;;;;;;12.94;100.00;96100.75;5081847;28;19928;-61
2022/09/28 10:29:43;;;;;;;;;;;;;;;12.92;100.00;96108.34;5079115;28;19928;-62
2022/09/28 10:32:21;;;;;;;;;;;;;;;12.95;100.00;96102.34;5079363;28;19959;-62
2022/09/28 10:34:48;;;;;;;;;;;;;;;12.99;100.00;96103.28;5082636;28;20489;-62
2022/09/28 10:37:15;;;;;;;;;;;;;;;12.96;100.00;96113.84;5081104;28;19962;-63
2022/09/28 10:39:45;;;;;;;;;;;;;;;13.04;100.00;96106.84;5078656;28;19964;-62
2022/09/28 10:42:12;;;;;;;;;;;;;;;13.13;100.00;96110.31;5079398;28;19925;-62
2022/09/28 10:44:48;;;;;;;;;;;;;;;13.12;100.00;96122.16;5081933;28;19997;-62
2022/09/28 10:47:17;;;;;;;;;;;;;;;13.20;100.00;96116.75;5080838;28;19963;-62
2022/09/28 10:49:47;;;;;;;;;;;;;;;13.23;100.00;96124.16;5078574;28;19932;-62
2022/09/28 10:52:47;;;;;;;;;;;;;;;13.28;100.00;96126.63;5079893;28;19925;-62
2022/09/28 10:55:24;;;;;;;;;;;;;;;12.99;100.00;96124.72;5080927;28;19924;-62
2022/09/28 10:57:50;;;;;;;;;;;;;;;13.18;100.00;96131.59;5078751;28;19964;-62
2022/09/28 11:00:30;;;;;;;;;;;;;;;13.14;100.00;96128.75;5079983;28;19931;-62
2022/09/28 11:02:56;;;;;;;;;;;;;;;13.13;100.00;96124.50;5082299;28;19947;-63
2022/09/28 11:05:26;;;;;;;;;;;;;;;13.20;100.00;96126.69;5079702;28;19936;-63
2022/09/28 11:07:54;;;;;;;;;;;;;;;13.10;100.00;96135.06;5078547;28;19931;-63
2022/09/28 11:10:23;;;;;;;;;;;;;;;13.16;100.00;96137.25;5080616;28;19964;-62
2022/09/28 11:12:49;;;;;;;;;;;;;;;13.13;100.00;96121.03;5082009;28;19924;-62
2022/09/28 11:15:17;;;;;;;;;;;;;;;13.13;100.00;96123.72;5080277;28;19984;-62
2022/09/28 11:17:44;;;;;;;;;;;;;;;12.99;100.00;96130.06;5078241;28;19981;-62
2022/09/28 11:20:31;;;;;;;;;;;;;;;13.09;100.00;96122.81;5078414;28;19952;-63
2022/09/28 11:22:59;;;;;;;;;;;;;;;13.15;100.00;96116.16;5082147;28;19924;-62
2022/09/28 11:25:28;;;;;;;;;;;;;;;13.12;100.00;96124.84;5077716;28;20297;-61
2022/09/28 11:27:59;;;;;;;;;;;;;;;13.19;100.00;96120.53;5077959;28;20014;-62
2022/09/28 11:30:26;;;;;;;;;;;;;;;13.04;100.00;96109.53;5080594;28;19939;-63
2022/09/28 11:32:55;;;;;;;;;;;;;;;13.00;100.00;96115.53;5081524;28;19924;-62
2022/09/28 11:35:22;;;;;;;;;;;;;;;12.97;100.00;96115.41;5079057;28;20011;-62
2022/09/28 11:37:57;;;;;;;;;;;;;;;13.12;100.00;96112.19;5078059;28;19952;-62
2022/09/28 11:40:29;;;;;;;;;;;;;;;13.06;100.00;96124.19;5080136;28;19959;-64
2022/09/28 11:43:02;;;;;;;;;;;;;;;13.18;100.00;96123.56;5081517;28;19920;-62
2022/09/28 11:45:36;;;;;;;;;;;;;;;13.19;100.00;96122.44;5078318;28;19925;-62
2022/09/28 11:48:05;;;;;;;;;;;;;;;12.98;100.00;96117.75;5077852;28;19935;-63
2022/09/28 11:50:36;;;;;;;;;;;;;;;13.17;100.00;96116.63;5081213;28;19959;-62
2022/09/28 11:53:13;;;;;;;;;;;;;;;12.98;100.00;96115.09;5073283;28;19925;-63
2022/09/28 11:55:42;;;;;;;;;;;;;;;13.02;100.00;96117.91;5070730;28;19935;-63
2022/09/28 11:58:12;;;;;;;;;;;;;;;13.03;100.00;96124.06;5078037;28;19988;-62
2022/09/28 12:00:43;;;;;;;;;;;;;;;13.12;100.00;96122.16;5081124;28;19964;-63
2022/09/28 12:03:14;;;;;;;;;;;;;;;13.09;100.00;96118.22;5080494;28;19971;-64
2022/09/28 12:05:42;;;;;;;;;;;;;;;13.06;100.00;96120.75;5077464;28;19925;-63
2022/09/28 12:08:13;;;;;;;;;;;;;;;13.23;100.00;96120.69;5080751;28;20000;-63
2022/09/28 12:10:46;;;;;;;;;;;;;;;13.04;100.00;96121.03;5085265;28;19928;-62
2022/09/28 12:13:17;;;;;;;;;;;;;;;13.12;100.00;96114.13;5083900;28;19966;-63
2022/09/28 12:15:47;;;;;;;;;;;;;;;13.16;100.00;96115.03;5081766;28;19947;-63
2022/09/28 12:18:17;;;;;;;;;;;;;;;13.22;100.00;96121.78;5082401;28;19988;-62
2022/09/28 12:20:46;;;;;;;;;;;;;;;13.23;100.00;96121.47;5084931;28;19920;-63
2022/09/28 12:23:15;;;;;;;;;;;;;;;13.24;100.00;96132.97;5084512;28;19924;-63
2022/09/28 12:25:46;;;;;;;;;;;;;;;13.14;100.00;96130.66;5081213;28;20064;-63
2022/09/28 12:28:16;;;;;;;;;;;;;;;13.25;100.00;96132.66;5081802;28;19955;-62
2022/09/28 12:30:43;;;;;;;;;;;;;;;13.24;100.00;96141.03;5084648;28;19924;-62
2022/09/28 12:33:12;;;;;;;;;;;;;;;13.24;100.00;96136.44;5084039;28;20694;-62
2022/09/28 12:35:45;;;;;;;;;;;;;;;13.40;100.00;96136.69;5081278;28;19929;-64
2022/09/28 12:38:22;;;;;;;;;;;;;;;13.36;100.00;96127.72;5081748;28;19929;-63
2022/09/28 12:40:52;;;;;;;;;;;;;;;13.28;100.00;96126.63;5084453;28;19931;-62
2022/09/28 12:43:27;;;;;;;;;;;;;;;13.38;100.00;96125.50;5082831;28;19959;-64
2022/09/28 12:46:05;;;;;;;;;;;;;;;13.36;100.00;96127.72;5080767;28;19947;-63
2022/09/28 12:48:52;;;;;;;;;;;;;;;13.34;100.00;96127.22;5072817;28;19935;-62
2022/09/28 12:51:28;;;;;;;;;;;;;;;13.34;100.00;96132.59;5082374;28;19984;-62
2022/09/28 12:54:00;;;;;;;;;;;;;;;13.46;100.00;96132.72;5083744;28;19931;-62
2022/09/28 12:56:32;;;;;;;;;;;;;;;13.34;100.00;96140.63;5081472;28;20006;-62